Time;durP1;ratioP1;P1;durP2;ratioP2;P2;SDS_P1;SDS_P2;PMS_P1;PMS_P2;Temp;Humidity;BMP_temperature;BMP_pressure;BME280_temperature;BME280_humidity;BME280_pressure;Samples;Min_cycle;Max_cycle;Signal;HPM_P1;HPM_P2
2023/01/03 00:01:31;;;;;;;8.13;4.27;;;7.90;99.90;;;;;;5057243;28;20201;-88
2023/01/03 00:03:58;;;;;;;7.83;4.57;;;7.90;99.90;;;;;;5042392;28;20183;-96
2023/01/03 00:06:30;;;;;;;6.40;4.20;;;7.80;99.90;;;;;;5039172;28;20211;-83
2023/01/03 00:09:00;;;;;;;5.83;4.23;;;7.70;99.90;;;;;;5027920;28;20200;-82
2023/01/03 00:14:20;;;;;;;7.50;4.60;;;7.60;99.90;;;;;;5021530;28;20178;-84
2023/01/03 00:16:50;;;;;;;7.10;4.47;;;7.50;99.90;;;;;;5020986;28;20627;-83
2023/01/03 00:19:16;;;;;;;5.97;4.40;;;7.50;99.90;;;;;;5021438;28;20183;-82
2023/01/03 00:21:43;;;;;;;5.93;4.07;;;7.40;99.90;;;;;;5021152;28;20244;-82
2023/01/03 00:24:09;;;;;;;8.73;4.47;;;7.40;99.90;;;;;;5021153;28;20633;-86
2023/01/03 00:26:35;;;;;;;6.23;3.67;;;7.40;99.90;;;;;;5020056;28;20179;-82
2023/01/03 00:29:03;;;;;;;7.23;4.27;;;7.30;99.90;;;;;;5018991;28;20211;-82
2023/01/03 00:31:28;;;;;;;8.00;3.63;;;7.30;99.90;;;;;;4999910;28;20262;-83
2023/01/03 00:33:54;;;;;;;4.20;3.20;;;7.30;99.90;;;;;;5031167;28;20332;-82
2023/01/03 00:36:20;;;;;;;5.67;3.70;;;7.30;99.90;;;;;;5036820;28;20616;-82
2023/01/03 00:38:46;;;;;;;5.97;3.90;;;7.20;99.90;;;;;;5035565;28;20660;-81
2023/01/03 00:41:15;;;;;;;5.90;3.50;;;7.20;99.90;;;;;;5036896;28;20198;-81
2023/01/03 00:43:45;;;;;;;9.07;3.53;;;7.10;99.90;;;;;;5035889;28;20241;-83
2023/01/03 00:46:13;;;;;;;6.53;3.00;;;7.20;99.90;;;;;;5035807;28;20182;-82
2023/01/03 00:48:39;;;;;;;5.47;3.37;;;7.10;99.90;;;;;;5036698;28;20229;-81
2023/01/03 00:51:07;;;;;;;8.90;3.63;;;7.10;99.90;;;;;;5037338;28;20606;-82
2023/01/03 00:53:34;;;;;;;6.00;3.40;;;7.10;99.90;;;;;;5037089;28;20279;-82
2023/01/03 00:56:13;;;;;;;7.13;3.77;;;7.20;99.90;;;;;;5037050;28;20176;-83
2023/01/03 00:58:39;;;;;;;7.60;2.70;;;7.20;99.90;;;;;;5036284;28;20252;-83
2023/01/03 01:01:31;;;;;;;8.27;2.77;;;7.10;99.90;;;;;;5036679;28;20174;-82
2023/01/03 01:04:20;;;;;;;7.70;3.00;;;7.20;99.90;;;;;;5020814;28;20187;-85
2023/01/03 01:06:52;;;;;;;4.83;2.70;;;7.20;99.90;;;;;;5038482;28;20174;-81
2023/01/03 01:09:23;;;;;;;7.07;2.43;;;7.20;99.90;;;;;;5038349;28;20218;-84
2023/01/03 01:11:50;;;;;;;6.57;2.50;;;7.20;99.90;;;;;;5038826;28;20194;-82
2023/01/03 01:14:20;;;;;;;5.50;2.47;;;7.20;99.90;;;;;;5038365;28;20170;-83
2023/01/03 01:16:54;;;;;;;10.60;2.53;;;7.20;99.90;;;;;;5038228;28;20178;-82
2023/01/03 01:19:29;;;;;;;7.57;2.80;;;7.20;99.90;;;;;;5037000;28;20246;-82
2023/01/03 01:21:56;;;;;;;5.50;2.37;;;7.20;99.90;;;;;;5038478;28;20566;-81
2023/01/03 01:24:22;;;;;;;4.83;2.47;;;7.20;99.90;;;;;;5036861;28;20178;-82
2023/01/03 01:26:48;;;;;;;8.33;3.20;;;7.20;99.90;;;;;;5037956;28;20519;-83
2023/01/03 01:29:15;;;;;;;6.43;2.37;;;7.20;99.90;;;;;;5038475;28;20218;-81
2023/01/03 01:31:42;;;;;;;8.20;3.40;;;7.20;99.90;;;;;;5038587;28;20484;-82
2023/01/03 01:34:09;;;;;;;6.30;2.83;;;7.20;99.90;;;;;;5035756;28;20548;-82
2023/01/03 01:36:38;;;;;;;7.47;3.10;;;7.20;99.90;;;;;;5038025;28;20209;-82
2023/01/03 01:39:07;;;;;;;13.23;3.70;;;7.20;99.90;;;;;;5037405;28;20194;-82
2023/01/03 01:44:55;;;;;;;8.40;3.80;;;7.20;99.90;;;;;;5038389;28;20261;-82
2023/01/03 01:47:29;;;;;;;11.73;3.80;;;7.10;99.90;;;;;;5037927;28;20508;-82
2023/01/03 01:50:19;;;;;;;4.67;3.43;;;7.00;99.90;;;;;;5038145;28;20272;-82
2023/01/03 01:53:00;;;;;;;6.10;3.70;;;7.00;99.90;;;;;;5053285;28;20174;-85
2023/01/03 01:55:33;;;;;;;6.43;4.20;;;7.00;99.90;;;;;;5038018;28;20247;-82
2023/01/03 01:58:00;;;;;;;13.43;4.13;;;7.00;99.90;;;;;;5036674;28;20262;-82
2023/01/03 02:00:27;;;;;;;8.43;4.10;;;7.00;99.90;;;;;;5036647;28;20186;-82
2023/01/03 02:02:54;;;;;;;8.37;4.40;;;6.90;99.90;;;;;;5036877;28;20175;-89
2023/01/03 02:05:21;;;;;;;11.17;4.27;;;6.90;99.90;;;;;;5035474;28;20252;-83
2023/01/03 02:07:49;;;;;;;6.63;3.87;;;6.80;99.90;;;;;;5037482;28;20241;-82
2023/01/03 02:10:16;;;;;;;8.13;4.77;;;6.80;99.90;;;;;;5037269;28;20231;-82
2023/01/03 02:13:11;;;;;;;8.07;3.60;;;6.80;99.90;;;;;;5037725;28;20163;-82
2023/01/03 02:15:39;;;;;;;8.00;4.20;;;6.70;99.90;;;;;;5036904;28;20163;-81
2023/01/03 02:18:33;;;;;;;8.40;4.17;;;6.70;99.90;;;;;;5035919;28;20189;-83
2023/01/03 02:21:07;;;;;;;6.57;3.83;;;6.70;99.90;;;;;;5028445;28;20194;-83
2023/01/03 02:23:39;;;;;;;12.43;4.07;;;6.60;99.90;;;;;;5036411;28;20177;-89
2023/01/03 02:26:25;;;;;;;9.70;3.77;;;6.60;99.90;;;;;;5035139;28;20498;-83
2023/01/03 02:29:28;;;;;;;8.47;4.10;;;6.50;99.90;;;;;;5036393;28;20230;-81
2023/01/03 02:32:12;;;;;;;6.40;3.70;;;6.50;99.90;;;;;;5036599;28;20178;-82
2023/01/03 02:34:56;;;;;;;7.40;3.67;;;6.50;99.90;;;;;;5050648;28;20214;-87
2023/01/03 02:37:30;;;;;;;10.23;3.90;;;6.40;99.90;;;;;;5035147;28;20230;-84
2023/01/03 02:40:28;;;;;;;4.27;3.27;;;6.40;99.90;;;;;;5034938;28;20178;-84
2023/01/03 02:43:04;;;;;;;8.57;3.70;;;6.30;99.90;;;;;;5033411;28;20197;-85
2023/01/03 02:45:30;;;;;;;7.10;3.07;;;6.30;99.90;;;;;;5033583;28;20209;-82
2023/01/03 02:48:02;;;;;;;7.07;3.47;;;6.30;99.90;;;;;;5034571;28;20276;-83
2023/01/03 02:50:36;;;;;;;6.67;3.10;;;6.30;99.90;;;;;;5034654;28;20177;-85
2023/01/03 02:53:05;;;;;;;10.00;3.20;;;6.20;99.90;;;;;;5017898;28;20616;-82
2023/01/03 02:55:33;;;;;;;8.30;3.00;;;6.20;99.90;;;;;;5034708;28;20178;-91
2023/01/03 02:58:07;;;;;;;5.20;3.00;;;6.20;99.90;;;;;;5034939;28;20185;-90
2023/01/03 03:00:42;;;;;;;9.33;3.77;;;6.20;99.90;;;;;;5034541;28;20168;-86
2023/01/03 03:03:13;;;;;;;5.70;3.20;;;6.20;99.90;;;;;;5033703;28;20616;-92
2023/01/03 03:05:55;;;;;;;9.90;3.70;;;6.10;99.90;;;;;;5033135;28;20178;-82
2023/01/03 03:08:21;;;;;;;5.93;3.17;;;6.10;99.90;;;;;;5034173;28;20248;-82
2023/01/03 03:13:37;;;;;;;6.07;3.53;;;6.00;99.90;;;;;;5034335;28;20197;-83
2023/01/03 03:16:48;;;;;;;8.57;2.97;;;6.10;99.90;;;;;;5034041;28;20217;-89
2023/01/03 03:25:37;;;;;;;7.93;3.40;;;6.00;99.90;;;;;;5036489;28;20213;-82
2023/01/03 03:30:58;;;;;;;4.83;2.70;;;6.00;99.90;;;;;;5039950;28;20662;-82
2023/01/03 03:33:27;;;;;;;7.73;3.30;;;6.00;99.90;;;;;;5039464;28;20229;-88
2023/01/03 03:36:09;;;;;;;9.43;3.40;;;6.00;99.90;;;;;;5038573;28;20609;-89
2023/01/03 03:38:41;;;;;;;8.70;3.40;;;6.00;99.90;;;;;;5037891;28;20321;-83
2023/01/03 03:47:47;;;;;;;7.93;3.60;;;5.90;99.90;;;;;;5038794;28;20169;-88
2023/01/03 03:50:52;;;;;;;7.80;3.20;;;5.80;99.90;;;;;;5036565;28;20194;-87
2023/01/03 03:53:22;;;;;;;7.90;3.37;;;5.80;99.90;;;;;;5028713;28;20663;-81
2023/01/03 03:56:07;;;;;;;11.17;4.07;;;5.80;99.90;;;;;;5036244;28;20228;-90
2023/01/03 03:58:39;;;;;;;10.00;3.57;;;5.70;99.90;;;;;;5038026;28;20652;-84
2023/01/03 04:01:06;;;;;;;8.87;3.40;;;5.70;99.90;;;;;;5037863;28;20566;-83
2023/01/03 04:03:32;;;;;;;10.60;3.83;;;5.70;99.90;;;;;;5038114;28;20308;-88
2023/01/03 04:06:09;;;;;;;7.03;3.60;;;5.60;99.90;;;;;;5037319;28;20178;-82
2023/01/03 04:08:35;;;;;;;9.20;3.60;;;5.60;99.90;;;;;;5037368;28;20648;-82
2023/01/03 04:11:07;;;;;;;9.43;3.80;;;5.60;99.90;;;;;;5037960;28;20182;-89
2023/01/03 04:13:37;;;;;;;4.63;3.10;;;5.60;99.90;;;;;;5037277;28;20186;-94
2023/01/03 04:16:04;;;;;;;8.00;3.50;;;5.60;99.90;;;;;;5039947;28;20171;-89
2023/01/03 04:18:30;;;;;;;9.57;3.70;;;5.60;99.90;;;;;;5041613;28;20242;-87
2023/01/03 04:20:57;;;;;;;7.07;3.87;;;5.60;99.90;;;;;;5040389;28;20193;-95
2023/01/03 04:23:23;;;;;;;7.53;3.50;;;5.60;99.90;;;;;;5041529;28;20183;-96
2023/01/03 04:25:49;;;;;;;7.33;4.23;;;5.60;99.90;;;;;;5039379;28;20628;-88
2023/01/03 04:28:16;;;;;;;10.67;3.80;;;5.60;99.90;;;;;;5040103;28;20210;-93
2023/01/03 04:30:42;;;;;;;13.50;4.30;;;5.60;99.90;;;;;;5039913;28;20174;-92
2023/01/03 04:33:07;;;;;;;12.37;3.63;;;5.60;99.90;;;;;;5038802;28;20163;-82
2023/01/03 04:35:34;;;;;;;5.47;3.50;;;5.60;99.90;;;;;;5037836;28;20242;-86
2023/01/03 04:38:00;;;;;;;8.33;3.80;;;5.70;99.90;;;;;;5038971;28;20321;-81
2023/01/03 04:40:25;;;;;;;8.60;4.20;;;5.60;99.90;;;;;;5039088;28;20654;-81
2023/01/03 04:45:37;;;;;;;7.57;3.33;;;5.60;99.90;;;;;;5039716;28;20186;-82
2023/01/03 04:48:03;;;;;;;7.83;3.87;;;5.60;99.90;;;;;;5041254;28;20195;-94
2023/01/03 04:50:31;;;;;;;8.30;3.90;;;5.60;99.90;;;;;;5044245;28;20661;-96
2023/01/03 04:52:57;;;;;;;7.03;3.80;;;5.60;99.90;;;;;;5041363;28;20602;-94
2023/01/03 04:55:23;;;;;;;7.87;3.87;;;5.50;99.90;;;;;;5038518;28;20187;-88
2023/01/03 04:57:48;;;;;;;7.13;3.50;;;5.50;99.90;;;;;;5041813;28;20166;-95
2023/01/03 05:00:16;;;;;;;7.83;3.90;;;5.50;99.90;;;;;;5042559;28;20189;-95
2023/01/03 05:02:42;;;;;;;12.13;3.60;;;5.40;99.90;;;;;;5036944;28;20182;-94
2023/01/03 05:05:08;;;;;;;8.20;3.90;;;5.30;99.90;;;;;;5024205;28;20176;-93
2023/01/03 05:07:34;;;;;;;8.13;3.87;;;5.30;99.90;;;;;;5036227;28;20179;-96
2023/01/03 05:09:59;;;;;;;6.60;3.43;;;5.30;99.90;;;;;;5021818;28;20176;-92
2023/01/03 05:12:31;;;;;;;5.33;3.27;;;5.20;99.90;;;;;;5023936;28;20198;-92
2023/01/03 05:14:57;;;;;;;7.93;3.63;;;5.10;99.90;;;;;;5021978;28;20171;-96
2023/01/03 05:17:23;;;;;;;7.90;3.57;;;5.10;99.90;;;;;;5024783;28;20218;-95
2023/01/03 05:25:51;;;;;;;10.90;3.60;;;5.20;99.90;;;;;;5028313;28;20186;-92
2023/01/03 05:28:21;;;;;;;6.73;3.30;;;5.20;99.90;;;;;;5044009;28;20234;-93
2023/01/03 05:31:04;;;;;;;7.70;3.63;;;5.10;99.90;;;;;;5024248;28;20217;-89
2023/01/03 05:33:29;;;;;;;5.83;3.53;;;5.20;99.90;;;;;;5038690;28;20269;-93
2023/01/03 05:35:55;;;;;;;6.43;3.37;;;5.10;99.90;;;;;;5043603;28;20202;-92
2023/01/03 05:38:22;;;;;;;6.57;3.70;;;5.10;99.90;;;;;;5043018;28;20230;-90
2023/01/03 05:40:55;;;;;;;4.57;3.40;;;5.20;99.90;;;;;;5045695;28;20178;-92
2023/01/03 05:43:21;;;;;;;7.67;3.50;;;5.10;99.90;;;;;;5039371;28;20178;-89
2023/01/03 05:45:51;;;;;;;5.13;3.10;;;5.10;99.90;;;;;;5048838;28;20166;-84
2023/01/03 05:48:18;;;;;;;8.53;3.57;;;5.00;99.90;;;;;;5041182;28;20609;-95
2023/01/03 05:50:45;;;;;;;7.60;3.30;;;5.00;99.90;;;;;;5044544;28;20186;-93
2023/01/03 05:53:11;;;;;;;8.57;3.53;;;5.00;99.90;;;;;;5045369;28;20224;-86
2023/01/03 05:55:40;;;;;;;7.17;3.27;;;5.00;99.90;;;;;;5042465;28;20199;-81
2023/01/03 05:58:06;;;;;;;5.73;3.67;;;5.00;99.90;;;;;;5010948;28;20263;-89
2023/01/03 06:00:32;;;;;;;7.30;3.40;;;5.00;99.90;;;;;;5018719;28;20203;-82
2023/01/03 06:02:58;;;;;;;4.53;3.17;;;5.10;99.90;;;;;;5014896;28;20222;-82
2023/01/03 06:05:24;;;;;;;6.10;3.73;;;5.10;99.90;;;;;;5015913;28;20233;-81
2023/01/03 06:07:50;;;;;;;7.50;3.70;;;5.10;99.90;;;;;;5030558;28;20184;-81
2023/01/03 06:10:17;;;;;;;7.20;3.97;;;5.10;99.90;;;;;;5029392;28;20514;-90
2023/01/03 06:12:53;;;;;;;5.57;3.03;;;5.10;99.90;;;;;;5031238;28;20186;-83
2023/01/03 06:15:20;;;;;;;6.27;3.60;;;5.20;99.90;;;;;;5019981;28;20264;-82
2023/01/03 06:17:56;;;;;;;7.33;3.77;;;5.20;99.90;;;;;;5028842;28;20179;-91
2023/01/03 06:20:23;;;;;;;6.67;3.40;;;5.20;99.90;;;;;;5017735;28;20633;-82
2023/01/03 06:22:48;;;;;;;5.87;3.60;;;5.20;99.90;;;;;;5016358;28;20175;-81
2023/01/03 06:25:14;;;;;;;9.00;3.73;;;5.30;99.90;;;;;;5015433;28;20182;-82
2023/01/03 06:27:41;;;;;;;6.80;3.97;;;5.30;99.90;;;;;;5014839;28;20179;-82
2023/01/03 06:30:08;;;;;;;7.73;3.70;;;5.30;99.90;;;;;;5015910;28;20187;-81
2023/01/03 06:32:35;;;;;;;8.50;3.77;;;5.30;99.90;;;;;;5015371;28;20537;-84
2023/01/03 06:35:00;;;;;;;6.93;3.83;;;5.30;99.90;;;;;;5016400;28;20172;-81
2023/01/03 06:37:26;;;;;;;11.47;4.23;;;5.30;99.90;;;;;;5015049;28;20231;-82
2023/01/03 06:39:52;;;;;;;9.10;4.47;;;5.30;99.90;;;;;;5015847;28;20190;-81
2023/01/03 06:53:21;;;;;;;8.67;4.80;;;5.50;99.90;;;;;;5015982;28;20174;-82
2023/01/03 06:55:46;;;;;;;6.30;4.50;;;5.50;99.90;;;;;;5015456;28;20202;-85
2023/01/03 06:58:12;;;;;;;8.77;4.93;;;5.60;99.90;;;;;;5016382;28;20191;-82
2023/01/03 07:00:41;;;;;;;7.90;4.77;;;5.60;99.90;;;;;;5019237;28;20187;-86
2023/01/03 07:03:07;;;;;;;8.43;5.03;;;5.60;99.90;;;;;;5028227;28;20193;-82
2023/01/03 07:05:32;;;;;;;7.93;4.40;;;5.60;99.90;;;;;;5039691;28;20502;-81
2023/01/03 07:07:58;;;;;;;7.43;4.20;;;5.70;99.90;;;;;;5039816;28;20209;-87
2023/01/03 07:10:24;;;;;;;9.30;5.03;;;5.70;99.90;;;;;;5039862;28;20178;-84
2023/01/03 07:15:34;;;;;;;5.77;4.50;;;5.70;99.90;;;;;;5038709;28;20513;-82
2023/01/03 07:18:00;;;;;;;10.17;5.00;;;5.80;99.90;;;;;;5036612;28;20174;-82
2023/01/03 07:20:26;;;;;;;8.90;5.20;;;5.80;99.90;;;;;;5036666;28;20182;-82
2023/01/03 07:22:52;;;;;;;10.30;4.90;;;5.80;99.90;;;;;;5037787;28;20167;-82
2023/01/03 07:25:18;;;;;;;6.33;4.43;;;5.80;99.90;;;;;;5036689;28;20194;-86
2023/01/03 07:27:44;;;;;;;8.53;5.37;;;5.80;99.90;;;;;;5036474;28;20177;-84
2023/01/03 07:30:10;;;;;;;9.30;5.67;;;5.80;99.90;;;;;;5054048;28;20178;-82
2023/01/03 07:32:35;;;;;;;9.43;5.30;;;5.80;99.90;;;;;;5025739;28;20248;-82
2023/01/03 07:35:01;;;;;;;7.37;5.43;;;5.90;99.90;;;;;;5037632;28;20178;-81
2023/01/03 07:37:27;;;;;;;9.60;5.30;;;5.90;99.90;;;;;;5037122;28;20307;-81
2023/01/03 07:39:53;;;;;;;10.10;5.83;;;5.90;99.90;;;;;;5036763;28;20185;-90
2023/01/03 07:45:04;;;;;;;8.70;6.27;;;5.90;99.90;;;;;;5038354;28;20535;-92
2023/01/03 07:47:29;;;;;;;10.30;6.30;;;5.80;99.90;;;;;;5036661;28;20191;-81
2023/01/03 07:49:55;;;;;;;11.87;6.50;;;5.90;99.90;;;;;;5036779;28;20675;-83
2023/01/03 07:52:21;;;;;;;8.87;5.87;;;5.80;99.90;;;;;;5024844;28;20349;-79
2023/01/03 07:54:46;;;;;;;10.67;6.10;;;5.80;99.90;;;;;;5014568;28;20235;-82
2023/01/03 07:57:13;;;;;;;8.67;6.03;;;5.80;99.90;;;;;;5017510;28;20186;-81
2023/01/03 07:59:39;;;;;;;11.10;5.57;;;5.80;99.90;;;;;;5017483;28;20183;-81
2023/01/03 08:02:05;;;;;;;8.13;5.57;;;5.80;99.90;;;;;;5018045;28;20265;-82
2023/01/03 08:04:30;;;;;;;9.53;6.30;;;5.70;99.90;;;;;;5015980;28;20556;-83
2023/01/03 08:06:57;;;;;;;8.57;6.20;;;5.80;99.90;;;;;;5017376;28;20183;-83
2023/01/03 08:14:53;;;;;;;10.87;7.07;;;5.80;99.90;;;;;;5017234;28;20510;-82
2023/01/03 08:17:18;;;;;;;13.63;7.50;;;5.80;99.90;;;;;;5017097;28;20167;-85
2023/01/03 08:19:44;;;;;;;13.80;8.10;;;5.80;99.90;;;;;;5016939;28;20171;-83
2023/01/03 08:22:10;;;;;;;13.17;7.83;;;5.80;99.90;;;;;;5016986;28;20258;-83
2023/01/03 08:24:35;;;;;;;11.03;7.00;;;5.90;99.90;;;;;;5016639;28;20210;-83
2023/01/03 08:27:01;;;;;;;12.07;7.50;;;5.90;99.90;;;;;;5015853;28;20602;-82
2023/01/03 08:29:27;;;;;;;16.43;8.00;;;5.90;99.90;;;;;;5016631;28;20215;-81
2023/01/03 08:31:55;;;;;;;14.27;8.57;;;5.90;99.90;;;;;;5031721;28;20183;-83
2023/01/03 08:34:24;;;;;;;13.37;7.67;;;6.00;99.90;;;;;;5034635;28;20182;-82
2023/01/03 08:36:55;;;;;;;13.90;7.37;;;6.00;99.90;;;;;;5052891;28;20182;-82
2023/01/03 08:39:27;;;;;;;14.97;8.07;;;6.00;99.90;;;;;;5035576;28;20186;-82
2023/01/03 08:42:01;;;;;;;14.97;7.77;;;6.00;99.90;;;;;;5036891;28;20178;-82
2023/01/03 08:44:27;;;;;;;13.00;7.77;;;6.10;99.90;;;;;;5035650;28;20257;-83
2023/01/03 08:46:56;;;;;;;13.07;8.13;;;6.10;99.90;;;;;;5036665;28;20571;-82
2023/01/03 08:49:22;;;;;;;12.37;7.70;;;6.10;99.90;;;;;;5035690;28;20246;-82
2023/01/03 08:51:48;;;;;;;13.60;8.13;;;6.20;99.90;;;;;;5037453;28;20691;-82
2023/01/03 08:54:16;;;;;;;11.63;7.63;;;6.30;99.90;;;;;;5038590;28;20182;-87
2023/01/03 08:56:42;;;;;;;13.57;7.80;;;6.30;99.90;;;;;;5037081;28;20159;-84
2023/01/03 08:59:07;;;;;;;15.23;8.20;;;6.30;99.90;;;;;;5039384;28;20242;-93
2023/01/03 09:01:33;;;;;;;13.40;7.80;;;6.30;99.90;;;;;;5038450;28;20178;-85
2023/01/03 09:04:00;;;;;;;12.93;8.20;;;6.30;99.90;;;;;;5036448;28;20197;-88
2023/01/03 09:06:26;;;;;;;11.93;7.73;;;6.30;99.90;;;;;;5036866;28;20194;-90
2023/01/03 09:08:52;;;;;;;11.17;7.90;;;6.30;99.90;;;;;;5039033;28;20925;-92
2023/01/03 09:11:17;;;;;;;13.53;7.57;;;6.20;99.90;;;;;;5036517;28;20185;-84
2023/01/03 09:13:43;;;;;;;13.23;7.40;;;6.20;99.90;;;;;;5035535;28;20182;-82
2023/01/03 09:16:11;;;;;;;11.07;7.73;;;6.20;99.90;;;;;;5036011;28;20195;-83
2023/01/03 09:18:38;;;;;;;13.80;8.07;;;6.20;99.90;;;;;;5038703;28;20607;-93
2023/01/03 09:21:05;;;;;;;14.43;8.37;;;6.30;99.90;;;;;;5036134;28;20269;-87
2023/01/03 09:23:33;;;;;;;14.73;8.30;;;6.30;99.90;;;;;;5041301;28;20175;-82
2023/01/03 09:25:58;;;;;;;12.50;8.50;;;6.40;99.90;;;;;;5043882;28;20159;-83
2023/01/03 09:28:24;;;;;;;12.07;8.37;;;6.50;99.90;;;;;;5035126;28;20209;-83
2023/01/03 09:30:51;;;;;;;13.03;8.07;;;6.40;99.90;;;;;;5037893;28;20171;-83
2023/01/03 09:33:16;;;;;;;13.53;8.47;;;6.40;99.90;;;;;;5035348;28;20186;-84
2023/01/03 09:35:42;;;;;;;17.70;8.43;;;6.30;99.90;;;;;;5034718;28;20178;-91
2023/01/03 09:38:08;;;;;;;14.60;8.43;;;6.30;99.90;;;;;;5035600;28;20230;-94
2023/01/03 09:40:42;;;;;;;11.47;8.53;;;6.20;99.90;;;;;;5035510;28;20185;-91
2023/01/03 09:43:17;;;;;;;15.47;8.10;;;6.20;99.90;;;;;;5036828;28;20169;-91
2023/01/03 09:45:57;;;;;;;13.93;8.33;;;6.20;99.90;;;;;;5037545;28;20174;-90
2023/01/03 09:48:33;;;;;;;12.63;8.30;;;6.20;99.90;;;;;;5035786;28;20209;-92
2023/01/03 09:50:59;;;;;;;13.30;8.50;;;6.30;99.90;;;;;;5035357;28;20174;-93
2023/01/03 10:05:16;;;;;;;14.53;9.33;;;6.80;99.90;;;;;;5033454;28;20233;-83
2023/01/03 10:08:11;;;;;;;13.73;9.83;;;6.80;99.90;;;;;;5024302;28;20171;-87
2023/01/03 10:11:04;;;;;;;18.30;11.73;;;6.80;99.90;;;;;;5023350;28;20334;-95
2023/01/03 10:13:59;;;;;;;15.67;11.17;;;6.90;99.90;;;;;;5021208;28;20684;-89
2023/01/03 10:16:57;;;;;;;18.50;11.33;;;7.00;99.90;;;;;;5019865;28;20183;-95
2023/01/03 10:19:52;;;;;;;16.37;11.93;;;7.00;99.90;;;;;;5017535;28;20195;-92
2023/01/03 10:22:24;;;;;;;16.90;11.20;;;7.00;99.90;;;;;;5015086;28;20167;-92
2023/01/03 10:25:13;;;;;;;15.93;11.70;;;7.00;99.90;;;;;;5016277;28;20171;-94
2023/01/03 10:27:47;;;;;;;17.20;11.90;;;7.00;99.90;;;;;;5013871;28;20168;-92
2023/01/03 10:30:16;;;;;;;16.67;11.73;;;7.00;99.90;;;;;;5015602;28;20199;-90
2023/01/03 10:33:12;;;;;;;17.80;12.70;;;7.00;99.90;;;;;;5019042;28;20178;-94
2023/01/03 10:35:38;;;;;;;16.00;12.03;;;7.10;99.90;;;;;;5034591;28;20175;-84
2023/01/03 10:38:04;;;;;;;16.33;11.40;;;7.10;99.90;;;;;;5034920;28;20542;-83
2023/01/03 10:40:45;;;;;;;19.07;11.43;;;7.10;99.90;;;;;;5034817;28;20210;-91
2023/01/03 10:43:25;;;;;;;17.00;11.23;;;7.10;99.90;;;;;;5033610;28;20193;-92
2023/01/03 10:46:03;;;;;;;19.03;11.40;;;7.00;99.90;;;;;;5034592;28;20178;-82
2023/01/03 10:48:42;;;;;;;15.90;10.87;;;7.10;99.90;;;;;;5034647;28;20206;-85
2023/01/03 10:51:41;;;;;;;14.40;10.30;;;7.20;99.90;;;;;;5035470;28;20220;-82
2023/01/03 10:54:33;;;;;;;15.60;9.40;;;7.10;99.90;;;;;;5000020;28;20293;-89
2023/01/03 10:56:59;;;;;;;14.90;9.80;;;7.20;99.90;;;;;;5027403;28;20277;-96
2023/01/03 10:59:27;;;;;;;11.87;9.03;;;7.20;99.90;;;;;;5034713;28;20202;-83
2023/01/03 11:02:15;;;;;;;14.43;8.97;;;7.20;99.90;;;;;;5035350;28;20174;-83
2023/01/03 11:04:42;;;;;;;11.63;8.53;;;7.30;99.90;;;;;;5033065;28;20183;-95
2023/01/03 11:07:08;;;;;;;15.60;8.90;;;7.30;99.90;;;;;;5034886;28;20488;-83
2023/01/03 11:09:47;;;;;;;13.67;9.17;;;7.40;99.90;;;;;;5050190;28;20206;-82
2023/01/03 11:12:35;;;;;;;16.47;9.33;;;7.30;99.90;;;;;;5033634;28;20174;-85
2023/01/03 11:15:31;;;;;;;11.10;8.47;;;7.30;99.90;;;;;;5034554;28;20227;-96
2023/01/03 11:18:03;;;;;;;13.77;9.33;;;7.30;99.90;;;;;;5044606;28;20178;-96
2023/01/03 11:20:42;;;;;;;16.07;9.20;;;7.30;99.90;;;;;;5035149;28;20166;-94
2023/01/03 11:23:24;;;;;;;10.50;8.87;;;7.30;99.90;;;;;;5033576;28;20171;-96
2023/01/03 11:25:53;;;;;;;15.70;9.83;;;7.30;99.90;;;;;;5034454;28;20205;-94
2023/01/03 11:28:40;;;;;;;16.70;8.77;;;7.30;99.90;;;;;;5049879;28;20711;-93
2023/01/03 11:31:19;;;;;;;13.53;8.27;;;7.30;99.90;;;;;;5035173;28;20174;-92
2023/01/03 11:34:01;;;;;;;15.03;8.97;;;7.40;99.90;;;;;;5032889;28;20182;-89
2023/01/03 11:36:47;;;;;;;13.50;8.93;;;7.30;99.90;;;;;;5033603;28;20182;-83
2023/01/03 11:39:27;;;;;;;14.07;9.07;;;7.50;99.90;;;;;;5032264;28;20253;-82
2023/01/03 11:41:58;;;;;;;13.10;8.63;;;7.40;99.90;;;;;;5033522;28;20573;-82
2023/01/03 11:44:49;;;;;;;11.37;8.17;;;7.40;99.90;;;;;;5032161;28;20892;-82
2023/01/03 11:47:30;;;;;;;11.77;8.07;;;7.40;99.90;;;;;;5052601;28;20175;-84
2023/01/03 11:50:23;;;;;;;11.70;7.90;;;7.60;99.90;;;;;;5052433;28;20211;-83
2023/01/03 11:53:00;;;;;;;13.17;8.60;;;7.70;99.90;;;;;;5037531;28;20225;-83
2023/01/03 11:55:45;;;;;;;11.63;8.47;;;7.70;99.90;;;;;;5036203;28;20228;-81
2023/01/03 11:58:26;;;;;;;12.20;7.47;;;7.80;99.90;;;;;;5052519;28;20201;-82
2023/01/03 12:01:15;;;;;;;11.50;7.73;;;7.80;99.90;;;;;;5037253;28;20158;-82
2023/01/03 12:03:44;;;;;;;9.50;6.93;;;7.80;99.90;;;;;;5035664;28;20186;-83
2023/01/03 12:06:30;;;;;;;9.93;6.90;;;7.90;99.90;;;;;;5052337;28;20490;-83
2023/01/03 12:09:11;;;;;;;9.83;6.13;;;7.90;99.90;;;;;;5039002;28;20210;-86
2023/01/03 12:12:01;;;;;;;9.13;5.37;;;7.90;99.90;;;;;;5042125;28;20179;-89
2023/01/03 12:14:40;;;;;;;12.40;5.93;;;7.90;99.90;;;;;;5040444;28;20665;-87
2023/01/03 12:17:28;;;;;;;8.47;5.53;;;7.90;99.90;;;;;;5042129;28;20227;-88
2023/01/03 12:20:02;;;;;;;10.13;5.10;;;7.90;99.90;;;;;;5045368;28;20166;-96
2023/01/03 12:22:41;;;;;;;9.90;5.77;;;7.90;99.90;;;;;;5046315;28;20175;-93
2023/01/03 12:25:22;;;;;;;6.17;5.00;;;8.00;99.90;;;;;;5066638;28;20254;-96
2023/01/03 12:28:10;;;;;;;6.60;5.10;;;8.10;99.90;;;;;;5045304;28;20167;-96
2023/01/03 12:31:08;;;;;;;8.67;4.73;;;8.10;99.90;;;;;;5063753;28;20601;-93
2023/01/03 12:33:51;;;;;;;8.57;4.87;;;8.00;99.90;;;;;;5041055;28;20183;-92
2023/01/03 12:36:20;;;;;;;8.97;5.30;;;8.10;99.90;;;;;;5035800;28;20182;-82
2023/01/03 12:39:09;;;;;;;10.80;5.40;;;8.00;99.90;;;;;;5034434;28;20227;-83
2023/01/03 12:42:04;;;;;;;8.50;5.17;;;8.10;99.90;;;;;;5019499;28;20274;-81
2023/01/03 12:44:43;;;;;;;9.03;4.57;;;8.10;99.90;;;;;;5016920;28;20266;-85
2023/01/03 12:47:44;;;;;;;7.13;5.07;;;8.20;99.90;;;;;;5016709;28;20528;-83
2023/01/03 12:50:37;;;;;;;9.83;5.03;;;8.20;99.90;;;;;;5017672;28;20677;-82
2023/01/03 12:53:15;;;;;;;7.87;4.77;;;8.10;99.90;;;;;;5017432;28;20183;-82
2023/01/03 12:55:50;;;;;;;9.50;5.00;;;8.10;99.90;;;;;;5018980;28;20195;-81
2023/01/03 12:58:30;;;;;;;8.80;4.87;;;8.10;99.90;;;;;;5018052;28;20555;-82
2023/01/03 13:01:05;;;;;;;8.20;4.47;;;8.20;99.90;;;;;;5019508;28;20605;-81
2023/01/03 13:03:46;;;;;;;9.77;5.17;;;8.20;99.90;;;;;;5044143;28;20617;-82
2023/01/03 13:06:40;;;;;;;5.23;3.73;;;8.20;99.90;;;;;;5054273;28;20189;-85
2023/01/03 13:09:30;;;;;;;7.20;3.70;;;8.40;99.90;;;;;;5037713;28;20661;-82
2023/01/03 13:12:14;;;;;;;5.47;3.50;;;8.40;99.90;;;;;;5036245;28;20179;-83
2023/01/03 13:14:55;;;;;;;6.83;3.40;;;8.40;99.90;;;;;;5037015;28;20175;-82
2023/01/03 13:17:24;;;;;;;4.83;3.40;;;8.40;99.90;;;;;;5038840;28;20162;-82
2023/01/03 13:20:11;;;;;;;7.90;3.00;;;8.40;99.90;;;;;;5032774;28;20249;-83
2023/01/03 13:22:48;;;;;;;4.43;2.80;;;8.40;99.90;;;;;;5018391;28;20163;-81
2023/01/03 13:25:29;;;;;;;9.43;3.30;;;8.40;99.90;;;;;;5017811;28;20513;-81
2023/01/03 13:28:04;;;;;;;4.20;2.40;;;8.40;99.90;;;;;;5018321;28;20163;-82
2023/01/03 13:30:34;;;;;;;4.80;2.50;;;8.50;99.90;;;;;;5018433;28;20308;-82
2023/01/03 13:33:08;;;;;;;6.13;2.90;;;8.40;99.90;;;;;;5024152;28;20513;-82
2023/01/03 13:35:56;;;;;;;3.60;2.30;;;8.50;99.90;;;;;;5038418;28;20181;-82
2023/01/03 13:38:35;;;;;;;7.97;2.37;;;8.40;99.90;;;;;;5036279;28;20331;-83
2023/01/03 13:41:08;;;;;;;4.33;2.37;;;8.20;99.90;;;;;;5037277;28;20177;-81
2023/01/03 13:43:37;;;;;;;5.03;2.27;;;8.10;99.90;;;;;;5038020;28;20159;-82
2023/01/03 13:46:32;;;;;;;4.80;2.60;;;8.10;99.90;;;;;;5038183;28;20185;-82
2023/01/03 13:49:06;;;;;;;4.60;2.50;;;8.10;99.90;;;;;;5051567;28;20679;-86
2023/01/03 13:51:38;;;;;;;7.57;2.30;;;8.10;99.90;;;;;;5038256;28;20158;-83
2023/01/03 13:54:24;;;;;;;4.57;2.20;;;8.00;99.90;;;;;;5037846;28;20163;-82
2023/01/03 13:56:53;;;;;;;4.97;2.40;;;7.80;99.90;;;;;;5038007;28;20697;-81
2023/01/03 13:59:42;;;;;;;5.77;2.40;;;7.70;99.90;;;;;;5037301;28;20500;-82
2023/01/03 14:02:11;;;;;;;3.20;2.57;;;7.60;99.90;;;;;;5037625;28;20606;-82
2023/01/03 14:05:06;;;;;;;5.33;2.43;;;7.60;99.90;;;;;;5036521;28;20174;-83
2023/01/03 14:07:56;;;;;;;4.83;2.40;;;7.50;99.90;;;;;;5052579;28;20247;-88
2023/01/03 14:10:46;;;;;;;4.67;2.33;;;7.50;99.90;;;;;;5002041;28;20206;-82
2023/01/03 14:13:27;;;;;;;5.97;2.20;;;7.50;99.90;;;;;;5033236;28;20211;-82
2023/01/03 14:16:15;;;;;;;9.23;2.33;;;7.50;99.90;;;;;;5016402;28;20182;-82
2023/01/03 14:19:04;;;;;;;5.83;2.60;;;7.50;99.90;;;;;;5015836;28;20191;-82
2023/01/03 14:21:41;;;;;;;3.97;2.07;;;7.50;99.90;;;;;;5006046;28;20195;-82
2023/01/03 14:24:17;;;;;;;3.53;2.20;;;7.50;99.90;;;;;;5016317;28;20243;-84
2023/01/03 14:26:43;;;;;;;7.23;2.47;;;7.50;99.90;;;;;;5016325;28;20241;-83
2023/01/03 14:29:16;;;;;;;6.37;2.27;;;7.40;99.90;;;;;;5016585;28;20210;-82
2023/01/03 14:31:46;;;;;;;5.57;2.37;;;7.40;99.90;;;;;;5015448;28;20179;-82